< < Back
Terminal Aerodrome Forecast


Current Version              Previous Versions:   1  2  3  4  5  6  7  8  9  

Terminal Aerodrome Forecast

757
FTUS44 KMRX 290524
TAFCHA
TAF
KCHA 290524Z 2906/3006 VRB03KT P6SM SKC
     FM291800 04006KT P6SM BKN250
     FM300200 VRB03KT P6SM BKN120 BKN250=



Latest METAR

587
SAUS80 KWBC 292100
MTRCHA
METAR KCHA 292053Z 35006KT 10SM SCT150 BKN250 28/10 A2997 RMK AO2 SLP143
T02780100 55008


USA.gov is the U.S. government's official web portal to all federal, state and local government web resources and services.